Time;durP1;ratioP1;P1;durP2;ratioP2;P2;SDS_P1;SDS_P2;PMS_P1;PMS_P2;Temp;Humidity;BMP_temperature;BMP_pressure;BME280_temperature;BME280_humidity;BME280_pressure;Samples;Min_cycle;Max_cycle;Signal;HPM_P1;HPM_P2
2022/04/28 00:01:40;;;;;;;;;42.50;35.00;;;;;-143.93;100.00;62969.28;4994752;28;8836;-68
2022/04/28 00:04:05;;;;;;;;;39.75;33.25;;;;;-143.93;100.00;62969.28;5000524;28;8918;-69
2022/04/28 00:06:30;;;;;;;;;34.25;31.75;;;;;-143.93;100.00;62969.28;5012395;28;9474;-69
2022/04/28 00:08:56;;;;;;;;;47.00;36.75;;;;;-143.93;100.00;62969.28;4992137;28;8820;-68
2022/04/28 00:11:21;;;;;;;;;36.75;34.00;;;;;-143.93;100.00;62969.28;5006862;28;8847;-68
2022/04/28 00:13:46;;;;;;;;;41.75;32.25;;;;;-143.93;100.00;62969.28;5006491;28;8813;-68
2022/04/28 00:16:12;;;;;;;;;41.00;33.25;;;;;-143.93;100.00;62969.28;5009607;28;8833;-68
2022/04/28 00:18:38;;;;;;;;;43.50;33.25;;;;;-143.93;100.00;62969.28;5000478;28;8834;-68
2022/04/28 00:21:03;;;;;;;;;42.25;33.00;;;;;-143.93;100.00;62969.28;4991797;28;9398;-68
2022/04/28 00:23:28;;;;;;;;;46.75;35.00;;;;;-143.93;100.00;62969.28;5006067;28;9574;-68
2022/04/28 00:25:54;;;;;;;;;38.50;33.00;;;;;-143.93;100.00;62969.28;4993996;28;8816;-68
2022/04/28 00:28:20;;;;;;;;;34.50;30.25;;;;;-143.93;100.00;62969.28;5002095;28;8818;-68
2022/04/28 00:30:46;;;;;;;;;37.75;32.50;;;;;-143.93;100.00;62969.28;5002018;28;8844;-68
2022/04/28 00:33:12;;;;;;;;;33.75;30.25;;;;;-143.93;100.00;62969.28;5003975;28;8835;-68
2022/04/28 00:35:38;;;;;;;;;34.25;29.00;;;;;-143.93;100.00;62969.28;4990905;28;8805;-68
2022/04/28 00:38:04;;;;;;;;;40.25;32.50;;;;;-143.93;100.00;62969.28;5005005;28;8952;-67
2022/04/28 00:40:29;;;;;;;;;42.25;34.25;;;;;-143.93;100.00;62969.28;4993551;28;9528;-69
2022/04/28 00:43:18;;;;;;;;;38.25;31.75;;;;;-143.93;100.00;62969.28;4998738;28;8813;-68
2022/04/28 00:45:40;;;;;;;;;36.25;30.75;;;;;-143.93;100.00;62969.28;5000140;28;8858;-69
2022/04/28 00:50:49;;;;;;;;;33.25;31.50;;;;;-143.93;100.00;62969.28;4993039;28;8825;-68
2022/04/28 00:53:16;;;;;;;;;39.50;33.75;;;;;-143.93;100.00;62969.28;4989454;28;9007;-68
2022/04/28 00:55:42;;;;;;;;;43.25;35.25;;;;;-143.93;100.00;62969.28;5004588;28;8816;-68
2022/04/28 00:58:07;;;;;;;;;38.75;32.75;;;;;-143.93;100.00;62969.28;5008582;28;8811;-68
2022/04/28 01:00:34;;;;;;;;;40.25;35.50;;;;;-143.93;100.00;62969.28;4991537;28;8827;-68
2022/04/28 01:02:59;;;;;;;;;36.00;33.25;;;;;-143.93;100.00;62969.28;4991816;28;8792;-68
2022/04/28 01:05:26;;;;;;;;;34.50;30.50;;;;;-143.93;100.00;62969.28;5003096;28;8805;-68
2022/04/28 01:07:51;;;;;;;;;35.25;31.00;;;;;-143.93;100.00;62969.28;4993309;28;9673;-66
2022/04/28 01:10:17;;;;;;;;;49.00;38.25;;;;;-143.93;100.00;62969.28;4994016;28;8808;-67
2022/04/28 01:12:43;;;;;;;;;36.00;30.75;;;;;-143.93;100.00;62969.28;4989206;28;8808;-67
2022/04/28 01:15:09;;;;;;;;;46.50;33.50;;;;;-143.93;100.00;62969.28;4993036;28;8818;-66
2022/04/28 01:17:34;;;;;;;;;44.25;34.25;;;;;-143.93;100.00;62969.28;4997720;28;8827;-67
2022/04/28 01:20:00;;;;;;;;;40.00;33.50;;;;;-143.93;100.00;62969.28;4999033;28;8854;-67
2022/04/28 01:22:26;;;;;;;;;45.00;33.75;;;;;-143.93;100.00;62969.28;4994623;28;8839;-67
2022/04/28 01:24:51;;;;;;;;;32.25;28.50;;;;;-143.93;100.00;62969.28;4993640;28;8816;-68
2022/04/28 01:27:18;;;;;;;;;45.00;34.00;;;;;-143.93;100.00;62969.28;4992893;28;8835;-67
2022/04/28 01:29:44;;;;;;;;;38.25;31.00;;;;;-143.93;100.00;62969.28;4992158;28;9555;-67
2022/04/28 01:32:09;;;;;;;;;45.50;36.00;;;;;-143.93;100.00;62969.28;4991007;28;8856;-67
2022/04/28 01:34:34;;;;;;;;;42.25;33.50;;;;;-143.93;100.00;62969.28;5001422;28;8829;-67
2022/04/28 01:37:00;;;;;;;;;40.25;34.00;;;;;-143.93;100.00;62969.28;5002080;28;8821;-67
2022/04/28 01:39:25;;;;;;;;;40.50;33.25;;;;;-143.93;100.00;62969.28;4999604;28;8820;-68
2022/04/28 01:41:50;;;;;;;;;41.25;32.75;;;;;-143.93;100.00;62969.28;4990557;28;8828;-68
2022/04/28 01:44:16;;;;;;;;;36.00;30.00;;;;;-143.93;100.00;62969.28;4989747;28;8833;-68
2022/04/28 01:46:42;;;;;;;;;35.25;30.75;;;;;-143.93;100.00;62969.28;4994201;28;8943;-68
2022/04/28 01:49:07;;;;;;;;;42.25;33.50;;;;;-143.93;100.00;62969.28;4995286;28;8795;-68
2022/04/28 01:57:01;;;;;;;;;42.50;35.00;;;;;-143.93;100.00;62969.28;5003212;28;8818;-68
2022/04/28 01:59:26;;;;;;;;;44.25;33.00;;;;;-143.93;100.00;62969.28;4990821;28;10075;-68
2022/04/28 02:01:51;;;;;;;;;39.75;34.50;;;;;-143.93;100.00;62969.28;4988672;28;9567;-68
2022/04/28 02:04:17;;;;;;;;;44.75;36.50;;;;;-143.93;100.00;62969.28;5001027;28;8895;-68
2022/04/28 02:06:43;;;;;;;;;42.25;35.75;;;;;-143.93;100.00;62969.28;4997975;28;8814;-68
2022/04/28 02:09:08;;;;;;;;;50.50;34.50;;;;;-143.93;100.00;62969.28;4992606;28;8825;-68
2022/04/28 02:11:34;;;;;;;;;35.75;31.50;;;;;-143.93;100.00;62969.28;5003582;28;8847;-68
2022/04/28 02:13:59;;;;;;;;;45.25;35.00;;;;;-143.93;100.00;62969.28;5002698;28;9882;-68
2022/04/28 02:16:24;;;;;;;;;44.25;35.50;;;;;-143.93;100.00;62969.28;4992826;28;8836;-68
2022/04/28 02:18:49;;;;;;;;;36.00;30.25;;;;;-143.93;100.00;62969.28;4992324;28;8876;-68
2022/04/28 02:21:15;;;;;;;;;42.50;34.50;;;;;-143.93;100.00;62969.28;4993715;28;8813;-68
2022/04/28 02:23:40;;;;;;;;;42.50;32.75;;;;;-143.93;100.00;62969.28;4989244;28;8828;-68
2022/04/28 02:26:05;;;;;;;;;39.00;32.00;;;;;-143.93;100.00;62969.28;4990521;28;8827;-68
2022/04/28 02:28:31;;;;;;;;;44.50;35.50;;;;;-143.93;100.00;62969.28;4991696;28;9275;-68
2022/04/28 02:30:56;;;;;;;;;40.50;32.75;;;;;-143.93;100.00;62969.28;4997960;28;8876;-69
2022/04/28 02:33:21;;;;;;;;;41.25;34.50;;;;;-143.93;100.00;62969.28;5002116;28;8930;-68
2022/04/28 02:35:47;;;;;;;;;36.75;33.75;;;;;-143.93;100.00;62969.28;5003405;28;8846;-68
2022/04/28 02:38:12;;;;;;;;;39.00;30.50;;;;;-143.93;100.00;62969.28;4994485;28;8800;-68
2022/04/28 02:40:38;;;;;;;;;37.50;31.75;;;;;-143.93;100.00;62969.28;4989213;28;8827;-68
2022/04/28 02:43:03;;;;;;;;;42.25;32.50;;;;;-143.93;100.00;62969.28;4998892;28;8809;-68
2022/04/28 02:45:29;;;;;;;;;41.25;35.75;;;;;-143.93;100.00;62969.28;4999932;28;8855;-68
2022/04/28 02:47:54;;;;;;;;;37.25;31.25;;;;;-143.93;100.00;62969.28;4990168;28;8855;-68
2022/04/28 02:50:21;;;;;;;;;45.00;34.75;;;;;-143.93;100.00;62969.28;5000690;28;8821;-68
2022/04/28 02:52:47;;;;;;;;;44.50;33.75;;;;;-143.93;100.00;62969.28;5001286;28;8902;-68
2022/04/28 02:55:12;;;;;;;;;43.00;33.75;;;;;-143.93;100.00;62969.28;4999444;28;8821;-68
2022/04/28 02:57:38;;;;;;;;;42.50;34.50;;;;;-143.93;100.00;62969.28;5000315;28;8852;-68
2022/04/28 03:00:05;;;;;;;;;43.50;37.00;;;;;-143.93;100.00;62969.28;4999118;28;8898;-68
2022/04/28 03:02:30;;;;;;;;;37.75;32.50;;;;;-143.93;100.00;62969.28;4989026;28;8833;-68
2022/04/28 03:04:56;;;;;;;;;42.75;34.25;;;;;-143.93;100.00;62969.28;4991720;28;8804;-68
2022/04/28 03:12:50;;;;;;;;;33.25;30.50;;;;;-143.93;100.00;62969.28;4995902;28;8805;-68
2022/04/28 03:15:16;;;;;;;;;38.75;32.75;;;;;-143.93;100.00;62969.28;4992048;28;8835;-68
2022/04/28 03:17:41;;;;;;;;;37.75;30.75;;;;;-143.93;100.00;62969.28;5006408;28;8827;-68
2022/04/28 03:20:07;;;;;;;;;40.25;33.50;;;;;-143.93;100.00;62969.28;5006365;28;8943;-68
2022/04/28 03:22:36;;;;;;;;;44.75;34.25;;;;;-143.93;100.00;62969.28;4994993;28;8847;-68
2022/04/28 03:25:05;;;;;;;;;47.00;36.00;;;;;-143.93;100.00;62969.28;4995542;28;8827;-68
2022/04/28 03:27:33;;;;;;;;;38.00;32.25;;;;;-143.93;100.00;62969.28;4990199;28;8820;-68
2022/04/28 03:29:58;;;;;;;;;45.75;32.50;;;;;-143.93;100.00;62969.28;4992813;28;8816;-68
2022/04/28 03:32:23;;;;;;;;;31.75;29.00;;;;;-143.93;100.00;62969.28;5006120;28;8920;-68
2022/04/28 03:34:49;;;;;;;;;43.50;35.00;;;;;-143.93;100.00;62969.28;4994083;28;8914;-68
2022/04/28 03:37:15;;;;;;;;;40.25;31.50;;;;;-143.93;100.00;62969.28;4994900;28;9685;-68
2022/04/28 03:39:40;;;;;;;;;47.50;34.75;;;;;-143.93;100.00;62969.28;4995541;28;8937;-68
2022/04/28 03:42:06;;;;;;;;;40.00;30.75;;;;;-143.93;100.00;62969.28;4993106;28;8788;-68
2022/04/28 03:44:32;;;;;;;;;46.00;34.50;;;;;-143.93;100.00;62969.28;5007231;28;8793;-68
2022/04/28 03:46:57;;;;;;;;;38.00;34.50;;;;;-143.93;100.00;62969.28;4999258;28;8830;-68
2022/04/28 03:49:23;;;;;;;;;38.25;34.75;;;;;-143.93;100.00;62969.28;5011176;28;8853;-68
2022/04/28 03:51:48;;;;;;;;;35.75;29.75;;;;;-143.93;100.00;62969.28;4999442;28;8934;-68
2022/04/28 03:54:14;;;;;;;;;44.75;35.00;;;;;-143.93;100.00;62969.28;5000812;28;8812;-68
2022/04/28 03:56:39;;;;;;;;;46.50;36.50;;;;;-143.93;100.00;62969.28;4992500;28;8836;-68
2022/04/28 03:59:05;;;;;;;;;46.25;34.50;;;;;-143.93;100.00;62969.28;4992869;28;8800;-68
2022/04/28 04:01:30;;;;;;;;;45.25;32.00;;;;;-143.93;100.00;62969.28;4996215;28;8822;-68
2022/04/28 04:03:56;;;;;;;;;47.00;34.50;;;;;-143.93;100.00;62969.28;5003092;28;8821;-68
2022/04/28 04:06:21;;;;;;;;;37.00;30.25;;;;;-143.93;100.00;62969.28;5005641;28;8817;-68
2022/04/28 04:08:47;;;;;;;;;37.00;35.50;;;;;-143.93;100.00;62969.28;5006125;28;8855;-68
2022/04/28 04:11:13;;;;;;;;;40.00;33.75;;;;;-143.93;100.00;62969.28;4992481;28;8796;-68
2022/04/28 04:13:38;;;;;;;;;43.75;37.25;;;;;-143.93;100.00;62969.28;4993765;28;8807;-68
2022/04/28 04:16:04;;;;;;;;;46.50;33.75;;;;;-143.93;100.00;62969.28;4994677;28;9559;-68
2022/04/28 04:18:31;;;;;;;;;45.50;34.50;;;;;-143.93;100.00;62969.28;4994565;28;8804;-68
2022/04/28 04:20:56;;;;;;;;;41.25;33.75;;;;;-143.93;100.00;62969.28;4994619;28;8805;-68
2022/04/28 04:23:22;;;;;;;;;43.50;36.25;;;;;-143.93;100.00;62969.28;4991104;28;8835;-68
2022/04/28 04:25:47;;;;;;;;;55.00;37.00;;;;;-143.93;100.00;62969.28;5003815;28;8786;-68
2022/04/28 04:28:13;;;;;;;;;39.50;35.50;;;;;-143.93;100.00;62969.28;4999213;28;8833;-68
2022/04/28 04:33:22;;;;;;;;;47.00;35.50;;;;;-143.93;100.00;62969.28;5004686;28;8801;-68
2022/04/28 04:35:47;;;;;;;;;46.75;35.25;;;;;-143.93;100.00;62969.28;5004791;28;8859;-68
2022/04/28 04:38:13;;;;;;;;;50.50;37.25;;;;;-143.93;100.00;62969.28;4991570;28;8906;-68
2022/04/28 04:40:38;;;;;;;;;43.50;35.25;;;;;-143.93;100.00;62969.28;4993988;28;8846;-68
2022/04/28 04:43:05;;;;;;;;;40.75;33.50;;;;;-143.93;100.00;62969.28;4997765;28;8886;-68
2022/04/28 04:45:31;;;;;;;;;47.75;38.00;;;;;-143.93;100.00;62969.28;4994273;28;9579;-68
2022/04/28 04:47:56;;;;;;;;;43.25;37.00;;;;;-143.93;100.00;62969.28;4994178;28;8855;-69
2022/04/28 04:50:22;;;;;;;;;47.75;38.25;;;;;-143.93;100.00;62969.28;4990293;28;8820;-68
2022/04/28 04:52:47;;;;;;;;;48.00;35.75;;;;;-143.93;100.00;62969.28;4993767;28;8804;-68
2022/04/28 04:55:12;;;;;;;;;44.75;34.50;;;;;-143.93;100.00;62969.28;4999517;28;8829;-68
2022/04/28 04:57:38;;;;;;;;;53.00;37.50;;;;;-143.93;100.00;62969.28;5002741;28;8837;-68
2022/04/28 05:00:05;;;;;;;;;46.75;35.25;;;;;-143.93;100.00;62969.28;5002681;28;8855;-68
2022/04/28 05:02:30;;;;;;;;;46.25;37.00;;;;;-143.93;100.00;62969.28;5003408;28;8934;-68
2022/04/28 05:04:56;;;;;;;;;44.50;36.25;;;;;-143.93;100.00;62969.28;5000164;28;8826;-68
2022/04/28 05:07:21;;;;;;;;;44.75;37.50;;;;;-143.93;100.00;62969.28;5001729;28;8817;-68
2022/04/28 05:09:46;;;;;;;;;47.25;37.25;;;;;-143.93;100.00;62969.28;4998816;28;8858;-67
2022/04/28 05:12:12;;;;;;;;;43.50;37.75;;;;;-143.93;100.00;62969.28;4992895;28;8842;-67
2022/04/28 05:14:37;;;;;;;;;41.25;30.50;;;;;-143.93;100.00;62969.28;4991499;28;8827;-68
2022/04/28 05:17:03;;;;;;;;;49.75;37.25;;;;;-143.93;100.00;62969.28;4991006;28;8985;-68
2022/04/28 05:19:28;;;;;;;;;49.75;38.00;;;;;-143.93;100.00;62969.28;4995542;28;8835;-68
2022/04/28 05:21:57;;;;;;;;;51.00;38.25;;;;;-143.93;100.00;62969.28;4992446;28;8839;-68
2022/04/28 05:24:23;;;;;;;;;47.00;37.50;;;;;-143.93;100.00;62969.28;4999260;27;8827;-66
2022/04/28 05:26:49;;;;;;;;;49.75;38.00;;;;;-143.93;100.00;62969.28;4992811;28;9579;-66
2022/04/28 05:29:14;;;;;;;;;48.25;35.75;;;;;-143.93;100.00;62969.28;4989687;28;8918;-66
2022/04/28 05:31:40;;;;;;;;;41.25;34.75;;;;;-143.93;100.00;62969.28;4993751;28;8812;-66
2022/04/28 05:34:05;;;;;;;;;52.50;38.75;;;;;-143.93;100.00;62969.28;4993543;28;8788;-66
2022/04/28 05:36:31;;;;;;;;;41.00;34.75;;;;;-143.93;100.00;62969.28;5001161;28;8829;-66
2022/04/28 05:38:57;;;;;;;;;52.75;42.00;;;;;-143.93;100.00;62969.28;5001222;28;8848;-66
2022/04/28 05:41:24;;;;;;;;;48.25;37.00;;;;;-143.93;100.00;62969.28;4999274;28;8784;-66
2022/04/28 05:46:34;;;;;;;;;52.00;36.25;;;;;-143.93;100.00;62969.28;4999524;28;8817;-66
2022/04/28 05:49:00;;;;;;;;;51.25;38.00;;;;;-143.93;100.00;62969.28;4987432;28;8944;-66
2022/04/28 05:51:26;;;;;;;;;55.25;40.00;;;;;-143.93;100.00;62969.28;4990891;28;8808;-66
2022/04/28 05:53:51;;;;;;;;;55.00;38.00;;;;;-143.93;100.00;62969.28;4992187;28;8821;-68
2022/04/28 05:56:16;;;;;;;;;41.25;38.25;;;;;-143.93;100.00;62969.28;4990273;28;8926;-69
2022/04/28 05:58:42;;;;;;;;;52.75;38.50;;;;;-143.93;100.00;62969.28;4992485;28;8877;-68
2022/04/28 06:01:07;;;;;;;;;51.25;38.00;;;;;-143.93;100.00;62969.28;4993436;28;8824;-66
2022/04/28 06:03:33;;;;;;;;;48.25;39.50;;;;;-143.93;100.00;62969.28;4993808;28;8803;-66
2022/04/28 06:05:58;;;;;;;;;53.50;40.50;;;;;-143.93;100.00;62969.28;4996573;28;8916;-66
2022/04/28 06:08:24;;;;;;;;;52.50;40.00;;;;;-143.93;100.00;62969.28;4992724;28;8824;-66
2022/04/28 06:10:49;;;;;;;;;53.00;38.25;;;;;-143.93;100.00;62969.28;5004168;28;8794;-66
2022/04/28 06:13:14;;;;;;;;;46.00;37.50;;;;;-143.93;100.00;62969.28;4996482;28;8920;-66
2022/04/28 06:15:40;;;;;;;;;44.75;37.50;;;;;-143.93;100.00;62969.28;4995467;28;8837;-66
2022/04/28 06:18:06;;;;;;;;;51.00;42.00;;;;;-143.93;100.00;62969.28;5001154;28;8835;-66
2022/04/28 06:20:31;;;;;;;;;54.50;40.75;;;;;-143.93;100.00;62969.28;5003106;28;8837;-66
2022/04/28 06:22:57;;;;;;;;;52.25;38.50;;;;;-143.93;100.00;62969.28;4992027;28;8804;-67
2022/04/28 06:25:23;;;;;;;;;51.75;41.25;;;;;-143.93;100.00;62969.28;5001914;28;8798;-67
2022/04/28 06:27:50;;;;;;;;;52.25;41.75;;;;;-143.93;100.00;62969.28;4994121;28;8832;-67
2022/04/28 06:30:15;;;;;;;;;49.25;38.50;;;;;-143.93;100.00;62969.28;4992991;28;8903;-67
2022/04/28 06:32:41;;;;;;;;;51.75;40.75;;;;;-143.93;100.00;62969.28;4993749;28;8813;-67
2022/04/28 06:35:08;;;;;;;;;57.50;43.25;;;;;-143.93;100.00;62969.28;5004116;28;8947;-67
2022/04/28 06:37:33;;;;;;;;;54.50;45.00;;;;;-143.93;100.00;62969.28;4989499;28;8851;-67
2022/04/28 06:39:58;;;;;;;;;54.00;40.50;;;;;-143.93;100.00;62969.28;4993294;28;8834;-67
2022/04/28 06:42:24;;;;;;;;;55.00;43.00;;;;;-143.93;100.00;62969.28;4993797;28;8835;-67
2022/04/28 06:44:49;;;;;;;;;53.50;43.50;;;;;-143.93;100.00;62969.28;4991437;28;8820;-67
2022/04/28 06:47:14;;;;;;;;;51.25;40.25;;;;;-143.93;100.00;62969.28;4990007;28;8891;-67
2022/04/28 06:49:40;;;;;;;;;52.00;39.00;;;;;-143.93;100.00;62969.28;5001580;28;8862;-67
2022/04/28 06:52:06;;;;;;;;;55.75;41.25;;;;;-143.93;100.00;62969.28;5001362;28;8825;-67
2022/04/28 06:54:31;;;;;;;;;53.00;40.75;;;;;-143.93;100.00;62969.28;5002670;28;8813;-67
2022/04/28 06:56:58;;;;;;;;;58.50;41.75;;;;;-143.93;100.00;62969.28;5007151;28;8834;-68
2022/04/28 06:59:24;;;;;;;;;53.00;42.25;;;;;-143.93;100.00;62969.28;5001382;28;8843;-67
2022/04/28 07:01:49;;;;;;;;;54.00;38.00;;;;;-143.93;100.00;62969.28;5000980;28;8804;-67
2022/04/28 07:04:15;;;;;;;;;56.00;39.50;;;;;-143.93;100.00;62969.28;5005476;28;8825;-67
2022/04/28 07:06:40;;;;;;;;;53.75;42.25;;;;;-143.93;100.00;62969.28;5000848;28;8825;-67
2022/04/28 07:09:05;;;;;;;;;50.00;40.75;;;;;-143.93;100.00;62969.28;5008481;28;8852;-67
2022/04/28 07:11:31;;;;;;;;;55.25;42.00;;;;;-143.93;100.00;62969.28;5009515;28;8824;-67
2022/04/28 07:13:56;;;;;;;;;51.50;37.75;;;;;-143.93;100.00;62969.28;4998338;28;8855;-67
2022/04/28 07:16:21;;;;;;;;;56.33;42.33;;;;;-143.93;100.00;62969.28;4997394;28;14064;-67
2022/04/28 07:18:47;;;;;;;;;47.50;37.25;;;;;-143.93;100.00;62969.28;4995948;28;9340;-66
2022/04/28 07:21:12;;;;;;;;;49.00;37.50;;;;;-143.93;100.00;62969.28;4999588;28;12277;-67
2022/04/28 07:23:38;;;;;;;;;49.50;39.00;;;;;-143.93;100.00;62969.28;5006038;28;8908;-67
2022/04/28 07:26:03;;;;;;;;;49.75;40.25;;;;;-143.93;100.00;62969.28;4995192;28;8855;-67
2022/04/28 07:28:28;;;;;;;;;45.00;36.50;;;;;-143.93;100.00;62969.28;4998603;28;9547;-67
2022/04/28 07:30:54;;;;;;;;;51.50;39.25;;;;;-143.93;100.00;62969.28;5002327;28;8903;-67
2022/04/28 07:33:19;;;;;;;;;44.25;37.50;;;;;-143.93;100.00;62969.28;5005372;28;8858;-68
2022/04/28 07:35:45;;;;;;;;;49.75;38.50;;;;;-143.93;100.00;62969.28;5006513;28;8815;-67
2022/04/28 07:38:10;;;;;;;;;46.50;37.50;;;;;-143.93;100.00;62969.28;5003471;27;8813;-68
2022/04/28 07:40:36;;;;;;;;;51.00;39.00;;;;;-143.93;100.00;62969.28;5011144;28;8928;-68
2022/04/28 07:43:02;;;;;;;;;45.25;37.50;;;;;-143.93;100.00;62969.28;4999783;28;8807;-68
2022/04/28 07:45:28;;;;;;;;;49.25;35.00;;;;;-143.93;100.00;62969.28;5012464;27;8809;-68
2022/04/28 07:47:54;;;;;;;;;41.25;35.00;;;;;-143.93;100.00;62969.28;5005334;28;8914;-67
2022/04/28 07:50:20;;;;;;;;;48.00;38.00;;;;;-143.93;100.00;62969.28;4991589;28;8927;-68
2022/04/28 07:52:45;;;;;;;;;50.50;39.00;;;;;-143.93;100.00;62969.28;5005161;28;8848;-68
2022/04/28 07:55:11;;;;;;;;;43.00;35.50;;;;;-143.93;100.00;62969.28;4995515;28;8819;-67
2022/04/28 07:57:37;;;;;;;;;44.25;35.75;;;;;-143.93;100.00;62969.28;5004324;28;8917;-68
2022/04/28 08:00:07;;;;;;;;;43.75;33.75;;;;;-143.93;100.00;62969.28;5016197;28;8797;-67
2022/04/28 08:02:32;;;;;;;;;47.25;37.25;;;;;-143.93;100.00;62969.28;4994698;28;8820;-67
2022/04/28 08:04:58;;;;;;;;;34.75;31.00;;;;;-143.93;100.00;62969.28;4992854;27;8804;-68
2022/04/28 08:07:23;;;;;;;;;47.00;36.25;;;;;-143.93;100.00;62969.28;5011986;28;8834;-68
2022/04/28 08:09:49;;;;;;;;;34.75;31.25;;;;;-143.93;100.00;62969.28;5009361;28;8828;-67
2022/04/28 08:12:14;;;;;;;;;56.00;44.50;;;;;-143.93;100.00;62969.28;5020484;28;8812;-68
2022/04/28 08:14:40;;;;;;;;;33.00;31.50;;;;;-143.93;100.00;62969.28;4998376;28;12362;-68
2022/04/28 08:17:05;;;;;;;;;40.50;33.50;;;;;-143.93;100.00;62969.28;5012785;28;8810;-68
2022/04/28 08:19:32;;;;;;;;;39.00;31.75;;;;;-143.93;100.00;62969.28;5002868;28;8825;-67
2022/04/28 08:21:58;;;;;;;;;40.75;33.00;;;;;-143.93;100.00;62969.28;4997975;28;8806;-68
2022/04/28 08:24:23;;;;;;;;;39.25;32.25;;;;;-143.93;100.00;62969.28;5002263;28;8852;-68
2022/04/28 08:26:49;;;;;;;;;37.50;32.75;;;;;-143.93;100.00;62969.28;5010635;28;9034;-68
2022/04/28 08:29:15;;;;;;;;;41.25;35.00;;;;;-143.93;100.00;62969.28;4997248;28;8801;-68
2022/04/28 08:31:46;;;;;;;;;38.75;30.25;;;;;-143.93;100.00;62969.28;5005627;28;9569;-68
2022/04/28 08:34:13;;;;;;;;;40.00;32.50;;;;;-143.93;100.00;62969.28;5010328;28;8891;-68
2022/04/28 08:36:40;;;;;;;;;38.50;32.00;;;;;-143.93;100.00;62969.28;4999642;28;8843;-68
2022/04/28 08:39:06;;;;;;;;;146.00;133.25;;;;;-143.93;100.00;62969.28;5016015;27;8797;-68
2022/04/28 08:41:33;;;;;;;;;43.50;33.75;;;;;-143.93;100.00;62969.28;5000221;28;8818;-68
2022/04/28 08:44:02;;;;;;;;;39.50;32.25;;;;;-143.93;100.00;62969.28;4994555;28;8862;-67
2022/04/28 08:49:12;;;;;;;;;34.50;31.25;;;;;-143.93;100.00;62969.28;5041517;28;8795;-67
2022/04/28 08:51:38;;;;;;;;;30.75;29.00;;;;;-143.93;100.00;62969.28;5029321;27;8877;-68
2022/04/28 08:54:04;;;;;;;;;36.25;31.75;;;;;-143.93;100.00;62969.28;4990667;28;8853;-68
2022/04/28 08:56:29;;;;;;;;;31.75;27.50;;;;;-143.93;100.00;62969.28;5006544;28;8862;-68
2022/04/28 08:58:55;;;;;;;;;28.25;22.00;;;;;-143.93;100.00;62969.28;5008179;28;8794;-68
2022/04/28 09:01:25;;;;;;;;;32.00;28.25;;;;;-143.93;100.00;62969.28;5011307;28;8985;-68
2022/04/28 09:03:51;;;;;;;;;24.25;22.50;;;;;-143.93;100.00;62969.28;4993343;28;9631;-68
2022/04/28 09:06:23;;;;;;;;;25.50;23.50;;;;;-143.93;100.00;62969.28;5002230;28;8886;-69
2022/04/28 09:08:49;;;;;;;;;33.50;29.75;;;;;-143.93;100.00;62969.28;5004568;28;8819;-68
2022/04/28 09:11:19;;;;;;;;;27.00;26.75;;;;;-143.93;100.00;62969.28;5005954;28;8790;-68
2022/04/28 09:14:09;;;;;;;;;27.25;24.50;;;;;-143.93;100.00;62969.28;5006485;28;8805;-69
2022/04/28 09:16:35;;;;;;;;;22.75;22.75;;;;;-143.93;100.00;62969.28;4995884;28;9831;-68
2022/04/28 09:19:00;;;;;;;;;25.25;24.25;;;;;-143.93;100.00;62969.28;4998722;28;8874;-69
2022/04/28 09:21:26;;;;;;;;;31.25;27.00;;;;;-143.93;100.00;62969.28;5001962;28;8832;-68
2022/04/28 09:23:52;;;;;;;;;28.00;26.50;;;;;-143.93;100.00;62969.28;5003582;28;9618;-68
2022/04/28 09:26:17;;;;;;;;;27.75;23.25;;;;;-143.93;100.00;62969.28;5004255;28;8899;-68
2022/04/28 09:28:43;;;;;;;;;22.50;22.50;;;;;-143.93;100.00;62969.28;4993774;28;8796;-68
2022/04/28 09:31:09;;;;;;;;;25.75;23.75;;;;;-143.93;100.00;62969.28;4994365;28;8796;-68
2022/04/28 09:33:36;;;;;;;;;26.50;24.75;;;;;-143.93;100.00;62969.28;4994059;28;8846;-68
2022/04/28 09:36:02;;;;;;;;;23.75;20.25;;;;;-143.93;100.00;62969.28;4994170;28;8847;-68
2022/04/28 09:38:29;;;;;;;;;24.25;22.25;;;;;-143.93;100.00;62969.28;4990166;28;8809;-68
2022/04/28 09:43:37;;;;;;;;;23.75;21.50;;;;;-143.93;100.00;62969.28;5004994;28;8825;-69
2022/04/28 09:46:04;;;;;;;;;21.50;21.50;;;;;-143.93;100.00;62969.28;5002014;28;8851;-69
2022/04/28 09:48:33;;;;;;;;;24.75;22.00;;;;;-143.93;100.00;62969.28;5002063;27;8822;-67
2022/04/28 09:51:04;;;;;;;;;24.25;22.50;;;;;-143.93;100.00;62969.28;5002622;28;8800;-68
2022/04/28 09:53:34;;;;;;;;;19.50;19.50;;;;;-143.93;100.00;62969.28;4991170;28;8853;-67
2022/04/28 09:56:05;;;;;;;;;21.50;18.25;;;;;-143.93;100.00;62969.28;5004821;28;8821;-68
2022/04/28 09:58:30;;;;;;;;;21.50;20.75;;;;;-143.93;100.00;62969.28;4995191;28;8804;-68
2022/04/28 10:01:01;;;;;;;;;24.25;20.75;;;;;-143.93;100.00;62969.28;4993809;28;8812;-68
2022/04/28 10:03:29;;;;;;;;;18.50;16.75;;;;;-143.93;100.00;62969.28;4993713;28;8823;-68
2022/04/28 10:05:57;;;;;;;;;19.25;18.00;;;;;-143.93;100.00;62969.28;4993215;28;8833;-68
2022/04/28 10:08:24;;;;;;;;;17.25;16.00;;;;;-143.93;100.00;62969.28;4989711;28;8778;-68
2022/04/28 10:10:55;;;;;;;;;16.25;15.75;;;;;-143.93;100.00;62969.28;4993301;28;8823;-68
2022/04/28 10:13:21;;;;;;;;;13.75;13.75;;;;;-143.93;100.00;62969.28;5004656;28;8826;-68
2022/04/28 10:15:52;;;;;;;;;14.50;14.50;;;;;-143.93;100.00;62969.28;4999157;28;8800;-67
2022/04/28 10:18:23;;;;;;;;;16.00;14.75;;;;;-143.93;100.00;62969.28;4993192;28;8813;-68
2022/04/28 10:20:55;;;;;;;;;14.75;13.75;;;;;-143.93;100.00;62969.28;5016845;28;8821;-67
2022/04/28 10:34:31;;;;;;;;;14.75;13.75;;;;;-143.93;100.00;62969.28;5007712;28;8807;-67
2022/04/28 10:37:04;;;;;;;;;16.25;12.50;;;;;-143.93;100.00;62969.28;4998007;28;8852;-68
2022/04/28 10:39:32;;;;;;;;;16.50;11.75;;;;;-143.93;100.00;62969.28;5001336;27;8817;-67
2022/04/28 10:41:57;;;;;;;;;13.50;12.50;;;;;-143.93;100.00;62969.28;5002345;28;8816;-67
2022/04/28 10:44:29;;;;;;;;;13.00;10.50;;;;;-143.93;100.00;62969.28;5005645;28;8855;-68
2022/04/28 10:46:58;;;;;;;;;12.00;11.00;;;;;-143.93;100.00;62969.28;5004083;28;9592;-68
2022/04/28 10:49:25;;;;;;;;;12.50;12.00;;;;;-143.93;100.00;62969.28;4993345;28;8792;-68
2022/04/28 10:51:56;;;;;;;;;13.00;12.75;;;;;-143.93;100.00;62969.28;4993107;28;9599;-68
2022/04/28 10:54:23;;;;;;;;;12.00;9.50;;;;;-143.93;100.00;62969.28;4992774;28;8927;-68
2022/04/28 10:56:50;;;;;;;;;13.25;12.00;;;;;-143.93;100.00;62969.28;4991689;28;9660;-67
2022/04/28 10:59:29;;;;;;;;;10.25;8.25;;;;;-143.93;100.00;62969.28;4989936;28;8804;-68
2022/04/28 11:02:17;;;;;;;;;9.00;9.00;;;;;-143.93;100.00;62969.28;5020800;28;9651;-67
2022/04/28 11:05:10;;;;;;;;;13.75;9.50;;;;;-143.93;100.00;62969.28;5006109;28;8851;-68
2022/04/28 11:07:35;;;;;;;;;11.25;10.25;;;;;-143.93;100.00;62969.28;5008979;28;8818;-68
2022/04/28 11:10:03;;;;;;;;;10.25;9.25;;;;;-143.93;100.00;62969.28;5015804;27;8832;-68
2022/04/28 11:12:37;;;;;;;;;9.00;9.00;;;;;-143.93;100.00;62969.28;5000974;28;8798;-68
2022/04/28 11:15:08;;;;;;;;;10.00;9.50;;;;;-143.93;100.00;62969.28;5003423;28;8845;-68
2022/04/28 11:17:36;;;;;;;;;12.00;10.75;;;;;-143.93;100.00;62969.28;5004330;28;8816;-67
2022/04/28 11:20:12;;;;;;;;;9.75;9.75;;;;;-143.93;100.00;62969.28;5005836;28;8808;-67
2022/04/28 11:22:41;;;;;;;;;11.25;10.25;;;;;-143.93;100.00;62969.28;4992267;28;8811;-67
2022/04/28 11:25:15;;;;;;;;;10.50;9.50;;;;;-143.93;100.00;62969.28;4992543;28;8820;-67
2022/04/28 11:27:41;;;;;;;;;9.00;8.00;;;;;-143.93;100.00;62969.28;5001799;28;8847;-67
2022/04/28 11:30:11;;;;;;;;;12.25;10.50;;;;;-143.93;100.00;62969.28;4996370;28;8848;-66
2022/04/28 11:32:45;;;;;;;;;14.25;11.00;;;;;-143.93;100.00;62969.28;4991029;28;8819;-67
2022/04/28 11:35:11;;;;;;;;;8.75;8.25;;;;;-143.93;100.00;62969.28;4989978;28;8792;-68